Time;durP1;ratioP1;P1;durP2;ratioP2;P2;SDS_P1;SDS_P2;PMS_P1;PMS_P2;Temp;Humidity;BMP_temperature;BMP_pressure;BME280_temperature;BME280_humidity;BME280_pressure;Samples;Min_cycle;Max_cycle;Signal;HPM_P1;HPM_P2
2020/12/16 00:01:07;;;;;;;16.57;11.67;;;7.50;99.90;;;;;;5062503;28;20207;-62
2020/12/16 00:03:33;;;;;;;12.30;10.67;;;7.50;99.90;;;;;;5069226;28;20212;-62
2020/12/16 00:06:00;;;;;;;13.33;10.33;;;7.50;99.90;;;;;;5068489;28;20177;-63
2020/12/16 00:08:25;;;;;;;11.83;9.43;;;7.50;99.90;;;;;;5070251;28;20181;-62
2020/12/16 00:10:50;;;;;;;10.80;8.90;;;7.50;99.90;;;;;;5069129;28;20258;-63
2020/12/16 00:13:16;;;;;;;12.53;9.80;;;7.50;99.90;;;;;;5069481;28;20200;-64
2020/12/16 00:15:41;;;;;;;12.10;8.80;;;7.50;99.90;;;;;;5069736;28;20169;-63
2020/12/16 00:18:07;;;;;;;10.73;8.97;;;7.50;99.90;;;;;;5070172;28;20188;-64
2020/12/16 00:20:32;;;;;;;10.37;8.67;;;7.60;99.90;;;;;;5070355;28;20166;-63
2020/12/16 00:22:58;;;;;;;10.30;8.50;;;7.60;99.90;;;;;;5068664;28;20254;-63
2020/12/16 00:25:23;;;;;;;9.43;7.67;;;7.60;99.90;;;;;;5069810;28;20189;-64
2020/12/16 00:27:49;;;;;;;10.10;8.33;;;7.60;99.90;;;;;;5069769;28;20660;-62
2020/12/16 00:30:14;;;;;;;9.93;8.33;;;7.50;99.90;;;;;;5068448;28;20948;-62
2020/12/16 00:32:40;;;;;;;13.10;9.10;;;7.50;99.90;;;;;;5067499;28;20261;-63
2020/12/16 00:35:07;;;;;;;10.57;8.23;;;7.50;99.90;;;;;;5070119;28;20178;-61
2020/12/16 00:37:40;;;;;;;11.57;9.07;;;7.50;99.90;;;;;;5068560;28;20174;-62
2020/12/16 00:40:08;;;;;;;10.13;8.33;;;7.60;99.90;;;;;;5070202;28;20176;-62
2020/12/16 00:42:34;;;;;;;9.70;8.80;;;7.60;99.90;;;;;;5068957;28;20292;-63
2020/12/16 00:45:00;;;;;;;11.60;9.40;;;7.60;99.90;;;;;;5068757;28;20187;-61
2020/12/16 00:47:26;;;;;;;12.33;9.50;;;7.60;99.90;;;;;;5067469;28;20186;-59
2020/12/16 00:49:51;;;;;;;11.77;9.73;;;7.60;99.90;;;;;;5068205;28;20178;-61
2020/12/16 00:52:17;;;;;;;10.53;9.37;;;7.60;99.90;;;;;;5069820;28;20196;-61
2020/12/16 00:54:43;;;;;;;12.73;10.43;;;7.60;99.90;;;;;;5069635;28;20180;-60
2020/12/16 00:57:09;;;;;;;11.50;9.10;;;7.60;99.90;;;;;;5067867;28;20599;-61
2020/12/16 00:59:34;;;;;;;10.87;9.03;;;7.70;99.90;;;;;;5069971;28;20157;-62
2020/12/16 01:02:04;;;;;;;13.17;10.63;;;7.70;99.90;;;;;;5068416;28;20221;-62
2020/12/16 01:04:29;;;;;;;10.23;9.17;;;7.80;99.90;;;;;;5068592;28;20169;-61
2020/12/16 01:06:54;;;;;;;12.53;10.30;;;7.80;99.90;;;;;;5066744;28;20472;-60
2020/12/16 01:09:20;;;;;;;12.33;10.37;;;7.80;99.90;;;;;;5070195;28;20649;-61
2020/12/16 01:11:45;;;;;;;12.50;10.87;;;7.80;99.90;;;;;;5068755;28;20189;-61
2020/12/16 01:14:11;;;;;;;12.47;10.27;;;7.80;99.90;;;;;;5069129;28;20232;-61
2020/12/16 01:16:37;;;;;;;11.87;10.10;;;7.80;99.90;;;;;;5067997;28;20777;-61
2020/12/16 01:19:06;;;;;;;13.83;10.57;;;7.80;99.90;;;;;;5069118;28;20187;-61
2020/12/16 01:21:36;;;;;;;11.87;9.43;;;7.80;99.90;;;;;;5069811;28;20169;-61
2020/12/16 01:24:03;;;;;;;15.83;10.53;;;7.80;99.90;;;;;;5069330;28;20250;-62
2020/12/16 01:26:36;;;;;;;13.40;10.50;;;7.80;99.90;;;;;;5067151;28;20233;-61
2020/12/16 01:29:02;;;;;;;15.30;10.63;;;7.80;99.90;;;;;;5063877;28;20193;-71
2020/12/16 02:47:01;;;;;;;26.33;16.60;;;7.70;99.90;;;;;;5129175;27;20824;-70
2020/12/16 02:49:27;;;;;;;27.70;18.57;;;7.80;99.90;;;;;;5111054;28;20185;-71
2020/12/16 02:51:54;;;;;;;26.70;19.07;;;7.80;99.90;;;;;;5122635;28;20183;-69
2020/12/16 02:54:21;;;;;;;27.23;19.17;;;7.80;99.90;;;;;;5108464;28;20170;-70
2020/12/16 02:56:51;;;;;;;24.13;16.23;;;7.80;99.90;;;;;;5121733;28;20635;-68
2020/12/16 02:59:21;;;;;;;26.43;18.90;;;7.80;99.90;;;;;;5133297;22;20220;-65
2020/12/16 03:01:54;;;;;;;29.00;18.57;;;7.80;99.90;;;;;;5066545;28;20181;-64
2020/12/16 03:04:21;;;;;;;23.17;14.40;;;7.90;99.90;;;;;;5061878;28;20192;-64
2020/12/16 03:06:51;;;;;;;31.63;19.23;;;7.80;99.90;;;;;;5067586;28;20204;-65
2020/12/16 03:09:19;;;;;;;29.17;18.27;;;7.90;99.90;;;;;;5066917;28;20191;-64
2020/12/16 03:11:44;;;;;;;28.60;17.70;;;7.90;99.90;;;;;;5046707;28;20426;-64
2020/12/16 03:14:10;;;;;;;26.47;16.43;;;7.90;99.90;;;;;;5047661;28;20174;-63
2020/12/16 03:16:36;;;;;;;29.20;17.33;;;7.90;99.90;;;;;;5044344;28;20186;-65
2020/12/16 03:19:03;;;;;;;31.07;20.10;;;7.90;99.90;;;;;;5047452;28;20202;-65
2020/12/16 03:21:29;;;;;;;30.77;18.33;;;7.90;99.90;;;;;;5045831;28;20323;-63
2020/12/16 03:23:55;;;;;;;28.43;16.43;;;7.90;99.90;;;;;;5067856;28;20204;-64
2020/12/16 03:26:21;;;;;;;26.97;14.63;;;7.90;99.90;;;;;;5051581;28;20213;-65
2020/12/16 03:28:59;;;;;;;29.13;12.13;;;7.90;99.90;;;;;;5049694;28;20170;-65
2020/12/16 03:31:25;;;;;;;27.17;14.40;;;7.90;99.90;;;;;;5047596;28;20239;-65
2020/12/16 03:33:51;;;;;;;35.40;16.70;;;7.80;99.90;;;;;;5048925;28;20550;-64
2020/12/16 03:36:19;;;;;;;37.80;15.97;;;7.90;99.90;;;;;;5050636;28;20185;-65
2020/12/16 03:38:51;;;;;;;45.30;16.90;;;7.90;99.90;;;;;;5047905;28;20185;-65
2020/12/16 03:41:18;;;;;;;38.67;16.27;;;7.90;99.90;;;;;;5049138;28;20180;-66
2020/12/16 03:43:46;;;;;;;36.57;15.67;;;7.90;99.90;;;;;;5048078;28;20178;-65
2020/12/16 03:46:12;;;;;;;36.90;15.67;;;7.90;99.90;;;;;;5046203;28;20565;-65
2020/12/16 03:48:45;;;;;;;44.20;18.23;;;7.90;99.90;;;;;;5048522;28;20205;-65
2020/12/16 03:51:13;;;;;;;36.70;18.73;;;7.90;99.90;;;;;;5047116;28;20174;-66
2020/12/16 03:53:40;;;;;;;41.80;19.17;;;7.90;99.90;;;;;;5026462;28;20225;-63
2020/12/16 03:56:11;;;;;;;41.93;19.77;;;7.90;99.90;;;;;;5029220;28;20658;-64
2020/12/16 03:58:47;;;;;;;43.77;20.57;;;8.00;99.90;;;;;;5026743;28;20193;-63
2020/12/16 04:01:15;;;;;;;38.93;19.97;;;8.00;99.90;;;;;;5031820;28;20182;-64
2020/12/16 04:03:41;;;;;;;38.73;19.40;;;8.00;99.90;;;;;;5043116;28;20175;-62
2020/12/16 04:06:11;;;;;;;36.63;18.47;;;8.00;99.90;;;;;;5041092;28;20202;-63
2020/12/16 04:08:38;;;;;;;38.80;19.63;;;8.00;99.90;;;;;;5042386;28;20602;-63
2020/12/16 04:11:09;;;;;;;40.13;21.87;;;8.00;99.90;;;;;;5034768;28;20178;-63
2020/12/16 04:13:34;;;;;;;43.13;22.93;;;8.10;99.90;;;;;;5033158;28;20220;-62
2020/12/16 04:16:01;;;;;;;38.93;21.03;;;8.10;99.90;;;;;;5032992;28;20590;-64
2020/12/16 04:18:26;;;;;;;42.83;22.20;;;8.10;99.90;;;;;;5033099;28;20167;-63
2020/12/16 04:20:52;;;;;;;43.40;21.90;;;8.10;99.90;;;;;;5033026;28;20281;-63
2020/12/16 04:23:18;;;;;;;41.97;21.67;;;8.10;99.90;;;;;;5033096;28;20171;-64
2020/12/16 04:25:43;;;;;;;40.10;21.93;;;8.10;99.90;;;;;;5033206;28;20197;-64
2020/12/16 04:28:09;;;;;;;45.97;23.60;;;8.10;99.90;;;;;;5032932;28;20175;-63
2020/12/16 04:30:34;;;;;;;43.83;23.73;;;8.10;99.90;;;;;;5032437;28;20604;-63
2020/12/16 04:33:00;;;;;;;46.67;23.33;;;8.10;99.90;;;;;;5032758;28;20175;-64
2020/12/16 04:35:31;;;;;;;43.40;23.00;;;8.10;99.90;;;;;;5033860;28;20437;-64
2020/12/16 04:37:57;;;;;;;33.23;18.60;;;8.00;99.90;;;;;;5033902;28;20174;-63
2020/12/16 04:40:23;;;;;;;42.37;22.60;;;8.00;99.90;;;;;;5031822;28;20618;-65
2020/12/16 04:43:06;;;;;;;38.43;21.33;;;8.00;99.90;;;;;;5028813;28;20178;-62
2020/12/16 04:45:32;;;;;;;35.00;21.00;;;8.00;99.90;;;;;;5025704;28;20210;-63
2020/12/16 04:47:58;;;;;;;38.47;22.13;;;8.00;99.90;;;;;;5033866;28;20199;-63
2020/12/16 04:50:27;;;;;;;38.17;20.17;;;8.00;99.90;;;;;;5031229;28;20194;-67
2020/12/16 04:53:01;;;;;;;35.93;20.27;;;8.00;99.90;;;;;;5031329;28;20183;-65
2020/12/16 04:55:27;;;;;;;35.50;20.10;;;8.00;99.90;;;;;;5031434;28;20206;-66
2020/12/16 04:57:53;;;;;;;32.27;19.00;;;8.00;99.90;;;;;;5031204;28;20170;-64
2020/12/16 05:00:23;;;;;;;34.13;20.93;;;8.00;99.90;;;;;;5031593;28;20217;-64
2020/12/16 05:03:04;;;;;;;33.67;20.43;;;8.00;99.90;;;;;;5032853;28;20203;-64
2020/12/16 05:05:30;;;;;;;34.83;21.87;;;8.00;99.90;;;;;;5031922;28;20209;-64
2020/12/16 05:07:56;;;;;;;32.77;20.67;;;8.10;99.90;;;;;;5032188;28;20171;-64
2020/12/16 05:10:33;;;;;;;33.87;20.57;;;8.10;99.90;;;;;;5031824;28;20281;-63
2020/12/16 05:13:10;;;;;;;36.63;21.30;;;8.10;99.90;;;;;;5032181;28;20551;-64
2020/12/16 05:15:37;;;;;;;37.30;22.30;;;8.10;99.90;;;;;;5032222;28;20216;-64
2020/12/16 05:18:10;;;;;;;34.53;20.07;;;8.10;99.90;;;;;;5032093;28;20252;-63
2020/12/16 05:20:42;;;;;;;34.57;21.10;;;8.10;99.90;;;;;;5032297;28;20190;-64
2020/12/16 05:23:08;;;;;;;37.63;20.47;;;8.10;99.90;;;;;;5033556;28;20178;-64
2020/12/16 05:25:35;;;;;;;36.30;21.07;;;8.10;99.90;;;;;;5033363;28;20725;-64
2020/12/16 05:28:00;;;;;;;36.83;20.17;;;8.10;99.90;;;;;;5035718;28;20193;-64
2020/12/16 05:30:26;;;;;;;34.13;19.57;;;8.10;99.90;;;;;;5035134;28;20355;-64
2020/12/16 05:32:53;;;;;;;32.40;20.30;;;8.10;99.90;;;;;;5035475;28;20638;-64
2020/12/16 05:35:22;;;;;;;33.97;19.60;;;8.10;99.90;;;;;;5032737;28;20273;-64
2020/12/16 05:37:48;;;;;;;28.17;18.23;;;8.00;99.90;;;;;;5032039;28;20186;-64
2020/12/16 05:40:16;;;;;;;30.67;18.73;;;8.00;99.90;;;;;;5031658;28;20217;-64
2020/12/16 05:42:42;;;;;;;35.80;20.00;;;8.00;99.90;;;;;;5032873;28;20174;-64
2020/12/16 05:45:19;;;;;;;31.17;19.17;;;8.00;99.90;;;;;;5034420;28;20198;-64
2020/12/16 05:48:05;;;;;;;32.30;18.13;;;8.00;99.90;;;;;;5031103;28;20174;-64
2020/12/16 05:50:34;;;;;;;30.87;17.27;;;8.00;99.90;;;;;;5030888;28;20190;-65
2020/12/16 05:53:20;;;;;;;27.27;16.93;;;8.00;99.90;;;;;;5031411;28;20174;-64
2020/12/16 05:55:51;;;;;;;31.97;18.53;;;8.00;99.90;;;;;;5031636;28;20252;-64
2020/12/16 05:58:17;;;;;;;30.43;17.70;;;8.00;99.90;;;;;;5031183;28;20180;-63
2020/12/16 06:00:49;;;;;;;35.27;19.50;;;8.00;99.90;;;;;;5030717;28;20294;-64
2020/12/16 06:03:27;;;;;;;28.57;18.03;;;8.00;99.90;;;;;;5030856;28;20222;-63
2020/12/16 06:06:10;;;;;;;29.23;18.90;;;8.00;99.90;;;;;;5031246;28;20206;-64
2020/12/16 06:08:39;;;;;;;32.47;18.87;;;8.00;99.90;;;;;;5030767;28;20205;-64
2020/12/16 06:11:06;;;;;;;34.63;18.87;;;8.00;99.90;;;;;;5030377;28;20730;-63
2020/12/16 06:13:32;;;;;;;28.70;16.80;;;8.10;99.90;;;;;;5030702;28;20194;-64
2020/12/16 06:15:59;;;;;;;30.57;17.80;;;8.00;99.90;;;;;;5030939;28;20174;-63
2020/12/16 06:18:28;;;;;;;27.73;16.50;;;8.00;99.90;;;;;;5030786;28;20209;-64
2020/12/16 06:20:54;;;;;;;29.80;16.40;;;8.00;99.90;;;;;;5030362;28;20313;-63
2020/12/16 06:23:20;;;;;;;25.73;14.67;;;8.00;99.90;;;;;;5030674;28;20212;-64
2020/12/16 06:25:49;;;;;;;26.07;15.07;;;8.00;99.90;;;;;;5030673;28;20209;-64
2020/12/16 06:28:15;;;;;;;26.50;16.57;;;8.00;99.90;;;;;;5030356;28;20232;-64
2020/12/16 06:30:54;;;;;;;27.47;15.73;;;8.00;99.90;;;;;;5030349;28;20194;-64
2020/12/16 06:33:26;;;;;;;26.70;14.93;;;8.00;99.90;;;;;;5030593;28;20170;-63
2020/12/16 06:36:00;;;;;;;26.50;15.40;;;8.10;99.90;;;;;;5030116;28;20202;-63
2020/12/16 06:38:28;;;;;;;23.30;15.17;;;8.10;99.90;;;;;;5030485;28;20178;-64
2020/12/16 06:40:55;;;;;;;26.07;14.23;;;8.10;99.90;;;;;;5030143;28;20398;-64
2020/12/16 06:43:40;;;;;;;26.57;15.23;;;8.10;99.90;;;;;;5030509;28;20266;-64
2020/12/16 06:46:30;;;;;;;27.90;16.23;;;8.00;99.90;;;;;;5030334;28;20243;-63
2020/12/16 06:48:57;;;;;;;24.17;14.53;;;8.00;99.90;;;;;;5038530;28;20293;-64
2020/12/16 06:51:24;;;;;;;24.10;14.03;;;8.00;99.90;;;;;;5010269;28;20245;-63
2020/12/16 06:54:03;;;;;;;26.37;15.63;;;8.00;99.90;;;;;;5010750;28;20272;-64
2020/12/16 06:56:29;;;;;;;28.77;15.83;;;8.00;99.90;;;;;;5010842;28;20602;-64
2020/12/16 06:58:55;;;;;;;24.77;15.83;;;8.00;99.90;;;;;;5010530;28;20170;-64
2020/12/16 07:01:21;;;;;;;24.70;16.00;;;8.10;99.90;;;;;;5010358;28;20171;-64
2020/12/16 07:03:46;;;;;;;25.20;15.13;;;8.10;99.90;;;;;;5010612;28;20179;-63
2020/12/16 07:06:32;;;;;;;24.27;16.13;;;8.10;99.90;;;;;;5010557;28;20202;-64
2020/12/16 07:09:18;;;;;;;25.83;14.93;;;8.10;99.90;;;;;;5010638;28;20218;-64
2020/12/16 07:11:46;;;;;;;24.40;14.87;;;8.10;99.90;;;;;;5010471;28;20183;-63
2020/12/16 07:14:15;;;;;;;25.43;15.50;;;8.10;99.90;;;;;;5010534;28;20598;-64
2020/12/16 07:16:41;;;;;;;25.33;16.27;;;8.20;99.90;;;;;;5010781;28;20269;-64
2020/12/16 07:19:07;;;;;;;24.60;15.57;;;8.20;99.90;;;;;;5010658;28;20195;-64
2020/12/16 07:21:33;;;;;;;25.40;14.80;;;8.20;99.90;;;;;;5010367;28;20538;-64
2020/12/16 07:24:03;;;;;;;24.30;14.80;;;8.10;99.90;;;;;;5010614;28;20179;-64
2020/12/16 07:26:32;;;;;;;25.63;14.27;;;8.10;99.90;;;;;;5010286;28;20667;-64
2020/12/16 07:28:59;;;;;;;37.53;20.43;;;8.10;99.90;;;;;;5010416;28;20195;-64
2020/12/16 07:31:26;;;;;;;24.43;14.43;;;8.10;99.90;;;;;;5010294;28;20633;-64
2020/12/16 07:33:52;;;;;;;22.50;15.77;;;8.10;99.90;;;;;;5014292;28;20553;-64
2020/12/16 07:36:19;;;;;;;27.03;16.03;;;8.10;99.90;;;;;;5014082;28;20258;-63
2020/12/16 07:38:50;;;;;;;24.40;15.60;;;8.10;99.90;;;;;;5013920;28;20298;-64
2020/12/16 07:41:23;;;;;;;24.40;14.93;;;8.10;99.90;;;;;;5013672;28;20183;-64
2020/12/16 07:43:48;;;;;;;23.40;15.30;;;8.00;99.90;;;;;;5013996;28;20241;-63
2020/12/16 07:46:14;;;;;;;28.93;16.77;;;8.00;99.90;;;;;;5013858;28;20207;-63
2020/12/16 07:48:44;;;;;;;26.40;15.87;;;8.00;99.90;;;;;;5013782;28;20182;-64
2020/12/16 07:51:09;;;;;;;28.30;16.20;;;8.10;99.90;;;;;;5013675;28;20186;-63
2020/12/16 07:53:35;;;;;;;28.97;15.80;;;8.10;99.90;;;;;;5013834;28;20171;-63
2020/12/16 07:56:03;;;;;;;29.70;16.40;;;8.00;99.90;;;;;;5013823;28;20190;-63
2020/12/16 07:58:30;;;;;;;29.47;16.00;;;8.00;99.90;;;;;;5014506;28;20206;-64
2020/12/16 08:01:10;;;;;;;25.67;16.10;;;8.00;99.90;;;;;;5016550;28;20588;-64
2020/12/16 08:03:36;;;;;;;27.07;16.00;;;8.10;99.90;;;;;;5014340;28;20649;-64
2020/12/16 08:06:03;;;;;;;28.43;16.07;;;8.10;99.90;;;;;;5014001;28;20197;-63
2020/12/16 08:08:29;;;;;;;24.20;15.80;;;8.20;99.90;;;;;;5013460;28;20178;-64
2020/12/16 08:10:55;;;;;;;25.17;16.37;;;8.20;99.90;;;;;;5013095;28;20191;-64
2020/12/16 08:13:26;;;;;;;29.90;16.50;;;8.20;99.90;;;;;;5017334;28;20678;-63
2020/12/16 08:15:52;;;;;;;27.37;15.53;;;8.20;99.90;;;;;;5033049;28;20179;-64
2020/12/16 08:18:18;;;;;;;23.53;15.40;;;8.20;99.90;;;;;;5033531;28;20555;-64
2020/12/16 08:20:45;;;;;;;24.50;15.40;;;8.20;99.90;;;;;;5032919;28;20191;-64
2020/12/16 08:23:15;;;;;;;26.23;16.10;;;8.30;99.90;;;;;;5033707;28;20162;-65
2020/12/16 08:25:42;;;;;;;27.33;15.83;;;8.20;99.90;;;;;;5033242;28;20677;-64
2020/12/16 08:28:08;;;;;;;29.13;16.83;;;8.20;99.90;;;;;;5032112;28;20171;-64
2020/12/16 08:30:38;;;;;;;28.83;18.23;;;8.20;99.90;;;;;;5013954;28;20203;-63
2020/12/16 08:33:13;;;;;;;27.03;16.53;;;8.20;99.90;;;;;;5033010;28;20182;-64
2020/12/16 08:35:52;;;;;;;24.07;16.90;;;8.30;99.90;;;;;;5031056;28;20654;-62
2020/12/16 08:38:32;;;;;;;29.40;16.27;;;8.30;99.90;;;;;;5032948;28;20198;-65
2020/12/16 08:40:59;;;;;;;26.70;16.53;;;8.30;99.90;;;;;;5032350;28;20290;-64
2020/12/16 08:43:29;;;;;;;25.40;16.63;;;8.40;99.90;;;;;;5030727;28;20208;-64
2020/12/16 08:45:59;;;;;;;24.77;15.07;;;8.40;99.90;;;;;;5031621;28;20274;-64
2020/12/16 15:28:06;;;;;;;17.47;12.40;;;7.70;99.90;;;;;;5104481;27;21041;-65
2020/12/16 15:30:32;;;;;;;20.57;13.17;;;7.70;99.90;;;;;;5067885;28;20181;-66
2020/12/16 15:32:57;;;;;;;19.67;12.97;;;7.60;99.90;;;;;;5067786;28;20174;-66
2020/12/16 15:35:23;;;;;;;18.43;13.13;;;7.60;99.90;;;;;;5066684;28;20177;-66
2020/12/16 15:37:48;;;;;;;19.43;12.73;;;7.60;99.90;;;;;;5068027;28;20201;-65
2020/12/16 15:40:14;;;;;;;18.50;11.77;;;7.70;99.90;;;;;;5090369;22;20183;-75
2020/12/16 15:42:39;;;;;;;17.47;12.40;;;7.70;99.90;;;;;;5048606;28;20193;-73
2020/12/16 15:45:07;;;;;;;18.53;12.60;;;7.60;99.90;;;;;;5046861;28;20180;-75
2020/12/16 15:47:33;;;;;;;12.50;9.80;;;7.70;99.90;;;;;;5048526;28;20652;-74
2020/12/16 15:49:59;;;;;;;16.70;11.90;;;7.60;99.90;;;;;;5048290;28;20170;-74
2020/12/16 15:52:25;;;;;;;15.43;11.20;;;7.60;99.90;;;;;;5045832;28;20213;-74
2020/12/16 15:54:50;;;;;;;15.30;11.70;;;7.60;99.90;;;;;;5024980;28;20654;-75
2020/12/16 15:57:16;;;;;;;15.90;10.83;;;7.60;99.90;;;;;;5038104;28;20237;-60
2020/12/16 15:59:41;;;;;;;16.47;13.23;;;7.60;99.90;;;;;;5020058;28;20183;-61
2020/12/16 16:02:07;;;;;;;17.83;11.57;;;7.60;99.90;;;;;;5018535;28;20255;-62
2020/12/16 16:04:33;;;;;;;16.57;12.50;;;7.60;99.90;;;;;;5032095;28;20220;-62
2020/12/16 16:06:58;;;;;;;16.63;12.10;;;7.60;99.90;;;;;;5027394;28;20293;-61
2020/12/16 16:09:24;;;;;;;18.33;13.27;;;7.60;99.90;;;;;;5024892;28;20265;-61
2020/12/16 16:11:51;;;;;;;16.67;11.63;;;7.60;99.90;;;;;;5009257;28;20278;-61
2020/12/16 16:14:17;;;;;;;15.80;11.97;;;7.60;99.90;;;;;;5019896;28;20183;-61
2020/12/16 16:16:43;;;;;;;15.60;12.00;;;7.60;99.90;;;;;;5028745;28;20178;-61
2020/12/16 16:19:08;;;;;;;16.97;12.87;;;7.50;99.90;;;;;;5030593;28;20198;-61
2020/12/16 16:21:34;;;;;;;17.77;12.93;;;7.60;99.90;;;;;;5037428;28;20205;-61
2020/12/16 16:24:01;;;;;;;18.07;13.17;;;7.60;99.90;;;;;;5028536;28;20187;-61
2020/12/16 16:26:27;;;;;;;15.83;12.07;;;7.60;99.90;;;;;;5024407;28;20826;-75
2020/12/16 16:28:53;;;;;;;15.37;12.00;;;7.60;99.90;;;;;;5025458;28;20270;-76
2020/12/16 16:31:19;;;;;;;17.63;13.00;;;7.70;99.90;;;;;;5026895;28;20191;-73
2020/12/16 16:33:44;;;;;;;16.43;11.20;;;7.70;99.90;;;;;;5026552;28;20182;-72
2020/12/16 16:36:10;;;;;;;14.73;11.63;;;7.60;99.90;;;;;;5018597;28;20187;-74
2020/12/16 16:38:35;;;;;;;18.53;12.80;;;7.60;99.90;;;;;;5024679;28;20187;-72
2020/12/16 16:41:02;;;;;;;18.73;12.43;;;7.60;99.90;;;;;;5012661;28;20227;-72
2020/12/16 16:43:28;;;;;;;14.90;11.30;;;7.60;99.90;;;;;;5014403;28;20221;-72
2020/12/16 16:45:53;;;;;;;17.77;12.10;;;7.60;99.90;;;;;;5016304;28;20236;-72
2020/12/16 16:48:19;;;;;;;13.13;10.50;;;7.60;99.90;;;;;;5011726;28;20179;-73
2020/12/16 16:50:44;;;;;;;14.83;11.50;;;7.60;99.90;;;;;;5013166;28;20264;-74
2020/12/16 16:53:10;;;;;;;15.73;11.57;;;7.60;99.90;;;;;;5033313;28;20202;-73
2020/12/16 16:55:37;;;;;;;15.60;11.93;;;7.60;99.90;;;;;;5020304;28;20184;-76
2020/12/16 16:58:03;;;;;;;14.97;11.53;;;7.60;99.90;;;;;;5011826;28;20202;-73
2020/12/16 17:00:28;;;;;;;15.33;11.70;;;7.50;99.90;;;;;;5012019;28;20202;-73
2020/12/16 17:02:55;;;;;;;15.20;11.67;;;7.50;99.90;;;;;;5029479;28;20194;-75
2020/12/16 17:05:20;;;;;;;17.47;12.33;;;7.50;99.90;;;;;;5029354;28;20236;-62
2020/12/16 17:07:46;;;;;;;18.17;12.63;;;7.50;99.90;;;;;;5018963;28;20214;-62
2020/12/16 17:10:15;;;;;;;17.40;13.00;;;7.50;99.90;;;;;;5012294;28;20179;-62
2020/12/16 17:12:48;;;;;;;14.77;11.50;;;7.40;99.90;;;;;;4994566;28;20183;-63
2020/12/16 17:15:15;;;;;;;16.67;12.17;;;7.40;99.90;;;;;;4994272;28;20262;-62
2020/12/16 17:17:41;;;;;;;18.50;12.97;;;7.40;99.90;;;;;;5012768;28;20183;-63
2020/12/16 17:20:08;;;;;;;14.37;10.83;;;7.40;99.90;;;;;;5017593;28;20175;-63
2020/12/16 17:22:34;;;;;;;15.97;12.27;;;7.40;99.90;;;;;;5031601;28;20285;-62
2020/12/16 17:24:59;;;;;;;14.07;9.90;;;7.40;99.90;;;;;;5028368;28;20175;-63
2020/12/16 17:27:25;;;;;;;13.80;11.33;;;7.30;99.90;;;;;;5013289;28;20202;-63
2020/12/16 17:29:51;;;;;;;15.13;10.80;;;7.30;99.90;;;;;;5025912;28;20431;-62
2020/12/16 17:32:17;;;;;;;15.33;11.07;;;7.40;99.90;;;;;;5032297;28;20697;-62
2020/12/16 17:34:42;;;;;;;15.20;10.90;;;7.40;99.90;;;;;;5032931;28;20174;-75
2020/12/16 17:37:08;;;;;;;15.77;11.00;;;7.40;99.90;;;;;;5032120;28;20174;-74
2020/12/16 17:39:33;;;;;;;16.97;12.00;;;7.30;99.90;;;;;;5015227;28;20194;-74
2020/12/16 17:41:59;;;;;;;16.17;11.73;;;7.30;99.90;;;;;;5029365;28;20251;-73
2020/12/16 17:44:24;;;;;;;15.13;11.07;;;7.20;99.90;;;;;;5014415;28;20675;-74
2020/12/16 17:46:50;;;;;;;15.57;11.43;;;7.30;99.90;;;;;;5015836;28;20207;-73
2020/12/16 17:49:16;;;;;;;13.90;10.70;;;7.30;99.90;;;;;;5006765;28;20529;-74
2020/12/16 17:51:43;;;;;;;13.33;10.17;;;7.30;99.90;;;;;;5032471;28;20285;-73
2020/12/16 17:54:10;;;;;;;12.60;8.47;;;7.30;99.90;;;;;;5029592;28;20638;-74
2020/12/16 17:56:35;;;;;;;14.40;11.63;;;7.20;99.90;;;;;;5011706;28;20198;-74
2020/12/16 17:59:01;;;;;;;13.43;10.97;;;7.20;99.90;;;;;;5016765;28;20198;-74
2020/12/16 18:01:26;;;;;;;11.20;9.70;;;7.20;99.90;;;;;;5013755;28;20663;-74
2020/12/16 18:03:52;;;;;;;11.73;9.80;;;7.20;99.90;;;;;;5010261;28;20171;-75
2020/12/16 18:06:17;;;;;;;13.13;9.60;;;7.20;99.90;;;;;;5016719;28;20217;-73
2020/12/16 18:08:43;;;;;;;12.87;10.63;;;7.30;99.90;;;;;;5019135;28;20227;-74
2020/12/16 18:11:09;;;;;;;12.47;11.10;;;7.30;99.90;;;;;;5020359;28;20256;-74
2020/12/16 18:13:34;;;;;;;12.17;9.80;;;7.30;99.90;;;;;;5013787;28;20179;-75
2020/12/16 18:16:00;;;;;;;12.00;9.67;;;7.40;99.90;;;;;;5017836;28;20278;-75
2020/12/16 18:18:26;;;;;;;11.73;9.97;;;7.40;99.90;;;;;;5012378;28;20175;-75
2020/12/16 18:20:51;;;;;;;10.33;9.23;;;7.40;99.90;;;;;;5012948;28;20237;-74
2020/12/16 18:23:16;;;;;;;10.83;9.17;;;7.40;99.90;;;;;;5014251;28;20206;-76
2020/12/16 18:25:44;;;;;;;11.43;10.23;;;7.40;99.90;;;;;;5015320;28;20240;-74
2020/12/16 18:28:10;;;;;;;12.00;9.93;;;7.40;99.90;;;;;;5018178;28;20244;-75
2020/12/16 18:30:36;;;;;;;11.33;9.57;;;7.40;99.90;;;;;;5020819;28;20268;-75
2020/12/16 18:33:03;;;;;;;11.33;9.33;;;7.40;99.90;;;;;;5022267;28;20183;-77
2020/12/16 18:35:29;;;;;;;10.70;9.23;;;7.40;99.90;;;;;;5006959;28;20214;-61
2020/12/16 18:37:55;;;;;;;11.17;9.70;;;7.30;99.90;;;;;;5011414;28;20214;-61
2020/12/16 18:40:21;;;;;;;11.17;9.60;;;7.30;99.90;;;;;;5009405;28;20553;-60
2020/12/16 18:42:49;;;;;;;11.53;9.43;;;7.20;99.90;;;;;;5027496;28;20197;-60
2020/12/16 18:45:15;;;;;;;12.70;9.83;;;7.20;99.90;;;;;;5019516;28;20187;-62
2020/12/16 18:47:41;;;;;;;11.10;9.43;;;7.10;99.90;;;;;;5013844;28;20293;-61
2020/12/16 18:50:08;;;;;;;14.37;11.37;;;7.10;99.90;;;;;;5017053;28;20655;-64
2020/12/16 18:52:41;;;;;;;12.47;10.83;;;7.10;99.90;;;;;;5008680;28;20647;-62
2020/12/16 18:55:08;;;;;;;14.37;10.37;;;7.10;99.90;;;;;;5009563;28;20186;-61
2020/12/16 18:57:35;;;;;;;12.30;10.43;;;7.10;99.90;;;;;;4996454;28;20195;-59
2020/12/16 19:00:01;;;;;;;12.43;10.80;;;7.00;99.90;;;;;;5004291;28;20191;-73
2020/12/16 19:02:29;;;;;;;11.93;10.33;;;7.00;99.90;;;;;;4998725;28;20380;-74
2020/12/16 19:04:54;;;;;;;14.07;11.20;;;7.10;99.90;;;;;;5006325;28;20282;-71
2020/12/16 19:07:21;;;;;;;14.70;11.37;;;7.10;99.90;;;;;;5012233;28;20290;-72
2020/12/16 19:09:47;;;;;;;12.77;9.70;;;7.20;99.90;;;;;;5027926;28;20224;-73
2020/12/16 19:12:13;;;;;;;12.40;10.20;;;7.20;99.90;;;;;;5016660;28;20191;-73
2020/12/16 19:14:38;;;;;;;13.27;10.37;;;7.20;99.90;;;;;;5014766;28;20171;-75
2020/12/16 19:17:03;;;;;;;12.27;10.03;;;7.10;99.90;;;;;;5008550;28;20659;-74
2020/12/16 19:19:29;;;;;;;11.73;9.80;;;7.10;99.90;;;;;;5011302;28;20191;-61
2020/12/16 19:21:55;;;;;;;12.97;10.03;;;7.00;99.90;;;;;;5006076;28;20202;-61
2020/12/16 19:24:21;;;;;;;13.70;10.97;;;7.00;99.90;;;;;;5023362;28;20186;-60
2020/12/16 19:26:48;;;;;;;12.17;9.50;;;6.90;99.90;;;;;;5008238;28;20238;-60
2020/12/16 19:29:15;;;;;;;13.70;11.23;;;7.00;99.90;;;;;;5006851;28;20222;-59
2020/12/16 19:31:42;;;;;;;13.30;11.07;;;7.00;99.90;;;;;;5006262;28;20211;-59
2020/12/16 19:34:08;;;;;;;14.60;11.27;;;7.00;99.90;;;;;;5009039;28;20175;-60
2020/12/16 19:36:34;;;;;;;15.47;12.43;;;7.00;99.90;;;;;;5024068;28;20189;-59
2020/12/16 19:39:03;;;;;;;17.60;12.67;;;7.00;99.90;;;;;;5008235;28;20255;-59
2020/12/16 19:41:29;;;;;;;15.57;12.27;;;7.00;99.90;;;;;;5010289;28;20207;-59
2020/12/16 19:43:54;;;;;;;13.67;12.23;;;7.00;99.90;;;;;;5006639;28;20538;-59
2020/12/16 19:46:21;;;;;;;16.63;12.70;;;7.00;99.90;;;;;;5015683;28;20217;-58
2020/12/16 19:48:47;;;;;;;15.13;10.37;;;7.00;99.90;;;;;;5024747;28;20182;-57
2020/12/16 19:51:12;;;;;;;16.87;14.23;;;6.90;99.90;;;;;;5012085;28;20219;-60
2020/12/16 19:53:38;;;;;;;18.30;14.57;;;7.00;99.90;;;;;;5014647;28;20264;-62
2020/12/16 19:56:04;;;;;;;18.87;15.83;;;7.00;99.90;;;;;;5012794;28;20684;-61
2020/12/16 19:58:29;;;;;;;21.23;15.80;;;7.00;99.90;;;;;;5012057;28;20201;-64
2020/12/16 20:00:56;;;;;;;15.73;13.33;;;7.00;99.90;;;;;;5016759;28;20225;-76
2020/12/16 20:03:22;;;;;;;21.30;17.53;;;7.00;99.90;;;;;;5021585;28;20673;-77
2020/12/16 20:05:53;;;;;;;16.80;14.73;;;7.00;99.90;;;;;;5018960;28;20197;-78
2020/12/16 20:08:19;;;;;;;20.43;17.23;;;7.00;99.90;;;;;;5006165;28;20189;-75
2020/12/16 20:10:44;;;;;;;16.27;13.73;;;6.90;99.90;;;;;;5007360;28;20204;-62
2020/12/16 20:13:10;;;;;;;17.37;15.17;;;7.00;99.90;;;;;;5012333;28;20255;-62
2020/12/16 20:15:35;;;;;;;19.27;15.93;;;7.00;99.90;;;;;;5012309;28;20203;-63
2020/12/16 20:18:01;;;;;;;19.10;15.93;;;6.90;99.90;;;;;;5017958;28;20182;-63
2020/12/16 20:20:26;;;;;;;19.80;16.23;;;6.90;99.90;;;;;;5005719;28;20200;-59
2020/12/16 20:22:52;;;;;;;18.43;15.00;;;6.90;99.90;;;;;;5014592;28;20195;-61
2020/12/16 20:25:18;;;;;;;14.93;11.33;;;6.90;99.90;;;;;;5022394;28;20175;-61
2020/12/16 20:27:44;;;;;;;21.67;19.40;;;6.90;99.90;;;;;;5019314;28;20229;-74
2020/12/16 20:30:10;;;;;;;18.83;16.63;;;6.90;99.90;;;;;;5017396;28;20197;-73
2020/12/16 20:32:43;;;;;;;19.20;17.03;;;6.90;99.90;;;;;;5023201;28;20528;-73
2020/12/16 20:35:10;;;;;;;17.70;15.27;;;6.80;99.90;;;;;;5021496;28;20687;-72